Terminal Aerodrome Forecast
Issued by NWS Cleveland, OH

Home | Current Version | Previous Version | Text Only | Print | Product List | Glossary Off
Versions: 1 2 3 4 5 6 7 8 9 10 11 12 13 14 15 16 17 18 19

000
FTUS41 KCLE 271328 AAA
TAFTOL
TAF AMD
KTOL 271328Z 2713/2812 03015G25KT 5SM -SHRA BR OVC006
      TEMPO 2713/2717 2SM SHRA BR
     FM272100 35020G30KT 4SM -SHRA BR OVC006
     FM280800 32012KT 4SM BR BKN006 OVC015=

USA.gov is the U.S. government's official web portal to all federal, state and local government web resources and services.